createdAt,value
2019-05-13T00:01:44.139Z,9.17
2019-05-13T00:04:14.210Z,4.67
2019-05-13T00:06:53.922Z,6.13
2019-05-13T00:09:16.229Z,6.43
2019-05-13T00:11:46.213Z,5.42
2019-05-13T00:14:18.821Z,8.33
2019-05-13T00:16:47.880Z,7.97
2019-05-13T00:19:17.413Z,6.87
2019-05-13T00:21:45.944Z,7.03
2019-05-13T00:24:14.429Z,8.70
2019-05-13T00:26:44.486Z,7.63
2019-05-13T00:29:15.102Z,6.97
2019-05-13T00:31:45.608Z,7.33
2019-05-13T00:34:14.493Z,8.28
2019-05-13T00:36:47.168Z,8.17
2019-05-13T00:39:16.222Z,9.73
2019-05-13T00:41:48.891Z,7.50
2019-05-13T00:44:17.388Z,5.23
2019-05-13T00:46:46.870Z,9.97
2019-05-13T00:49:15.313Z,7.07
2019-05-13T00:51:44.466Z,8.50
2019-05-13T00:54:14.686Z,5.80
2019-05-13T00:56:46.598Z,8.57
2019-05-13T00:59:16.519Z,6.17
2019-05-13T01:01:45.069Z,8.77
2019-05-13T01:04:14.559Z,8.37
2019-05-13T01:06:48.629Z,8.60
2019-05-13T01:09:20.041Z,5.67
2019-05-13T01:11:53.722Z,5.67
2019-05-13T01:14:23.722Z,5.37
2019-05-13T01:16:54.381Z,10.65
2019-05-13T01:19:23.696Z,5.53
2019-05-13T01:21:53.994Z,8.43
2019-05-13T01:24:24.559Z,10.48
2019-05-13T01:26:57.809Z,7.77
2019-05-13T01:29:27.586Z,5.85
2019-05-13T01:31:56.043Z,8.00
2019-05-13T01:34:27.671Z,10.70
2019-05-13T01:36:58.343Z,10.10
2019-05-13T01:39:27.080Z,8.33
2019-05-13T01:41:56.678Z,8.80
2019-05-13T01:44:25.154Z,10.33
2019-05-13T01:46:57.693Z,6.73
2019-05-13T01:49:26.146Z,6.10
2019-05-13T01:51:57.276Z,12.03
2019-05-13T01:54:30.024Z,9.37
2019-05-13T01:56:59.016Z,10.30
2019-05-13T01:59:27.536Z,9.57
2019-05-13T02:01:56.032Z,6.97
2019-05-13T02:04:25.513Z,12.07
2019-05-13T02:06:55.610Z,7.50
2019-05-13T02:09:27.311Z,12.13
2019-05-13T02:11:55.775Z,10.20
2019-05-13T02:14:24.902Z,8.60
2019-05-13T02:16:53.719Z,9.03
2019-05-13T02:19:28.209Z,9.07
2019-05-13T02:21:57.714Z,9.30
2019-05-13T02:24:26.203Z,6.90
2019-05-13T02:26:57.239Z,10.75
2019-05-13T02:29:25.695Z,12.40
2019-05-13T02:31:56.186Z,10.37
2019-05-13T02:34:25.078Z,11.17
2019-05-13T02:36:53.553Z,12.23
2019-05-13T02:39:26.342Z,8.13
2019-05-13T02:41:54.876Z,17.82
2019-05-13T02:44:24.600Z,9.53
2019-05-13T02:46:53.556Z,12.87
2019-05-13T02:49:25.911Z,12.30
2019-05-13T02:51:54.974Z,8.07
2019-05-13T02:54:25.999Z,11.03
2019-05-13T02:56:54.447Z,9.20
2019-05-13T02:59:24.677Z,10.88
2019-05-13T03:01:53.694Z,12.90
2019-05-13T03:04:23.334Z,8.83
2019-05-13T03:06:56.458Z,9.40
2019-05-13T03:09:25.163Z,10.67
2019-05-13T03:11:59.427Z,12.43
2019-05-13T03:14:32.391Z,8.98
2019-05-13T03:17:07.033Z,12.88
2019-05-13T03:19:35.638Z,11.90
2019-05-13T03:22:06.987Z,12.60
2019-05-13T03:24:35.485Z,9.83
2019-05-13T03:27:07.059Z,12.43
2019-05-13T03:29:35.531Z,9.43
2019-05-13T03:32:07.408Z,12.93
2019-05-13T03:34:44.735Z,11.07
2019-05-13T03:37:15.372Z,10.43
2019-05-13T03:39:54.502Z,10.53
2019-05-13T03:42:27.665Z,15.98
2019-05-13T03:44:56.117Z,10.57
2019-05-13T03:47:28.857Z,11.73
2019-05-13T03:50:02.859Z,15.13
2019-05-13T03:52:33.293Z,10.93
2019-05-13T03:55:03.173Z,10.03
2019-05-13T03:57:33.742Z,11.70
2019-05-13T04:00:03.507Z,9.43
2019-05-13T04:02:36.199Z,12.07
2019-05-13T04:05:05.685Z,9.33
2019-05-13T04:07:35.911Z,14.97
2019-05-13T04:10:12.903Z,13.27
2019-05-13T04:12:44.909Z,13.97
2019-05-13T04:15:14.507Z,12.00
2019-05-13T04:17:43.182Z,13.73
2019-05-13T04:20:12.897Z,12.67
2019-05-13T04:22:44.231Z,12.47
2019-05-13T04:25:13.585Z,12.73
2019-05-13T04:27:44.261Z,12.05
2019-05-13T04:30:14.457Z,19.07
2019-05-13T04:32:46.005Z,11.67
2019-05-13T04:35:15.882Z,10.10
2019-05-13T04:37:44.495Z,14.43
2019-05-13T04:40:16.846Z,11.20
2019-05-13T04:42:45.445Z,15.98
2019-05-13T04:45:14.159Z,11.73
2019-05-13T04:47:43.317Z,16.47
2019-05-13T04:50:14.082Z,20.43
2019-05-13T04:52:44.271Z,18.82
2019-05-13T04:55:13.364Z,19.73
2019-05-13T04:57:43.737Z,14.68
2019-05-13T05:00:13.073Z,15.40
2019-05-13T05:02:55.061Z,17.15
2019-05-13T05:05:35.935Z,16.60
2019-05-13T05:08:32.855Z,17.07
2019-05-13T05:11:24.899Z,15.98
2019-05-13T05:14:05.541Z,12.80
2019-05-13T05:16:44.055Z,14.00
2019-05-13T05:19:32.026Z,13.70
2019-05-13T05:22:22.313Z,21.93
2019-05-13T05:25:15.003Z,17.83
2019-05-13T05:27:53.092Z,17.80
2019-05-13T05:30:51.878Z,16.32
2019-05-13T05:33:41.189Z,16.50
2019-05-13T05:36:33.256Z,17.30
2019-05-13T05:39:12.315Z,15.30
2019-05-13T05:41:43.384Z,11.73
2019-05-13T05:44:13.356Z,15.87
2019-05-13T05:46:42.971Z,12.80
2019-05-13T05:49:13.851Z,10.10
2019-05-13T05:51:44.034Z,14.00
2019-05-13T05:54:16.790Z,17.30
2019-05-13T05:57:06.106Z,12.60
2019-05-13T05:59:37.582Z,12.13
2019-05-13T06:02:11.593Z,14.20
2019-05-13T06:04:42.763Z,10.50
2019-05-13T06:07:11.839Z,9.00
2019-05-13T06:09:42.366Z,9.83
2019-05-13T06:12:12.911Z,10.67
2019-05-13T06:14:42.439Z,9.63
2019-05-13T06:17:12.082Z,11.20
2019-05-13T06:19:41.920Z,15.27
2019-05-13T06:22:12.254Z,7.87
2019-05-13T06:24:42.045Z,9.60
2019-05-13T06:27:11.874Z,15.10
2019-05-13T06:29:42.310Z,9.08
2019-05-13T06:32:21.226Z,13.23
2019-05-13T06:34:42.848Z,11.37
2019-05-13T06:37:21.689Z,7.70
2019-05-13T06:39:56.157Z,8.63
2019-05-13T06:42:26.915Z,13.43
2019-05-13T06:44:55.436Z,11.73
2019-05-13T06:47:24.153Z,13.83
2019-05-13T06:49:52.644Z,11.73
2019-05-13T06:52:22.403Z,16.10
2019-05-13T06:54:52.217Z,11.30
2019-05-13T06:57:22.133Z,10.13
2019-05-13T06:59:52.357Z,9.17
2019-05-13T07:02:25.349Z,13.93
2019-05-13T07:04:54.053Z,13.73
2019-05-13T07:07:23.083Z,10.27
2019-05-13T07:09:51.955Z,10.27
2019-05-13T07:12:25.185Z,13.60
2019-05-13T07:14:53.665Z,9.17
2019-05-13T07:17:23.646Z,7.37
2019-05-13T07:19:52.165Z,8.93
2019-05-13T07:22:22.914Z,14.05
2019-05-13T07:24:52.063Z,8.10
2019-05-13T07:27:23.573Z,9.70
2019-05-13T07:29:55.519Z,5.27
2019-05-13T07:32:42.399Z,7.20
2019-05-13T07:35:14.088Z,8.60
2019-05-13T07:37:44.587Z,10.30
2019-05-13T07:40:13.571Z,9.47
2019-05-13T07:42:42.314Z,9.17
2019-05-13T07:45:13.921Z,8.67
2019-05-13T07:47:44.003Z,10.07
2019-05-13T07:50:14.324Z,7.93
2019-05-13T07:52:42.836Z,6.40
2019-05-13T07:55:15.211Z,4.33
2019-05-13T07:57:43.691Z,7.77
2019-05-13T08:00:12.953Z,6.17
2019-05-13T08:02:44.341Z,6.90
2019-05-13T08:05:15.981Z,6.80
2019-05-13T08:07:44.467Z,5.60
2019-05-13T08:10:14.577Z,7.03
2019-05-13T08:12:43.079Z,4.70
2019-05-13T08:15:13.335Z,6.33
2019-05-13T08:17:47.278Z,5.80
2019-05-13T08:20:14.160Z,5.70
2019-05-13T08:22:42.753Z,7.40
2019-05-13T08:25:13.015Z,9.50
2019-05-13T08:27:42.176Z,5.33
2019-05-13T08:30:12.189Z,6.27
2019-05-13T08:32:41.888Z,6.60
2019-05-13T08:35:12.775Z,3.90
2019-05-13T08:37:45.445Z,5.67
2019-05-13T08:40:14.745Z,5.50
2019-05-13T08:42:43.266Z,8.43
2019-05-13T08:45:16.128Z,7.07
2019-05-13T08:47:44.629Z,7.07
2019-05-13T08:50:17.451Z,11.20
2019-05-13T08:52:48.329Z,7.17
2019-05-13T08:55:17.687Z,4.80
2019-05-13T08:57:47.899Z,5.97
2019-05-13T09:00:26.978Z,6.23
2019-05-13T09:02:56.449Z,6.97
2019-05-13T09:05:27.679Z,5.73
2019-05-13T09:07:57.244Z,5.57
2019-05-13T09:10:26.780Z,5.17
2019-05-13T09:12:55.430Z,6.33
2019-05-13T09:15:23.891Z,6.03
2019-05-13T09:17:58.256Z,4.10
2019-05-13T09:20:28.299Z,4.72
2019-05-13T09:22:58.077Z,4.23
2019-05-13T09:25:26.540Z,4.77
2019-05-13T09:27:55.084Z,5.07
2019-05-13T09:30:27.130Z,2.50
2019-05-13T09:32:56.917Z,5.20
2019-05-13T09:35:25.402Z,4.83
2019-05-13T09:37:54.366Z,2.80
2019-05-13T09:40:22.940Z,5.60
2019-05-13T09:42:55.351Z,4.33
2019-05-13T09:45:25.709Z,4.45
2019-05-13T09:47:54.246Z,3.20
2019-05-13T09:50:32.182Z,4.17
2019-05-13T09:52:56.196Z,4.03
2019-05-13T09:55:28.943Z,3.60
2019-05-13T09:57:54.866Z,3.73
2019-05-13T10:00:23.500Z,3.97
2019-05-13T10:02:52.205Z,4.13
2019-05-13T10:05:22.519Z,4.03
2019-05-13T10:07:52.409Z,5.37
2019-05-13T10:10:22.418Z,2.23
2019-05-13T10:13:07.857Z,4.83
2019-05-13T10:15:23.163Z,2.97
2019-05-13T10:17:53.536Z,3.70
2019-05-13T10:20:24.880Z,4.43
2019-05-13T10:22:58.072Z,3.43
2019-05-13T10:25:27.696Z,3.57
2019-05-13T10:27:56.298Z,6.63
2019-05-13T10:30:24.771Z,2.53
2019-05-13T10:32:53.332Z,4.72
2019-05-13T10:35:23.722Z,3.20
2019-05-13T10:37:52.420Z,4.33
2019-05-13T10:40:22.941Z,5.07
2019-05-13T10:42:52.371Z,4.20
2019-05-13T10:45:22.300Z,3.83
2019-05-13T10:47:51.938Z,4.47
2019-05-13T10:50:27.751Z,5.50
2019-05-13T10:53:02.715Z,6.65
2019-05-13T10:55:32.482Z,5.95
2019-05-13T10:58:02.580Z,5.33
2019-05-13T11:00:42.328Z,4.37
2019-05-13T11:03:15.880Z,2.67
2019-05-13T11:05:52.201Z,3.33
2019-05-13T11:08:22.711Z,4.40
2019-05-13T11:10:53.026Z,3.63
2019-05-13T11:13:23.215Z,3.33
2019-05-13T11:15:58.292Z,3.77
2019-05-13T11:18:25.810Z,2.67
2019-05-13T11:20:54.419Z,2.65
2019-05-13T11:23:23.561Z,3.67
2019-05-13T11:25:55.410Z,2.65
2019-05-13T11:28:24.014Z,5.43
2019-05-13T11:30:59.346Z,5.20
2019-05-13T11:33:26.903Z,3.50
2019-05-13T11:35:55.504Z,3.27
2019-05-13T11:38:24.505Z,3.20
2019-05-13T11:40:54.292Z,4.77
2019-05-13T11:43:28.105Z,3.13
2019-05-13T11:46:02.307Z,3.67
2019-05-13T11:48:32.248Z,5.17
2019-05-13T11:51:04.098Z,4.47
2019-05-13T11:53:34.572Z,2.27
2019-05-13T11:56:03.577Z,2.27
2019-05-13T11:58:32.698Z,5.20
2019-05-13T12:01:02.589Z,2.07
2019-05-13T12:03:33.700Z,2.83
2019-05-13T12:06:03.177Z,1.97
2019-05-13T12:08:33.771Z,3.40
2019-05-13T12:11:04.073Z,1.80
2019-05-13T12:13:37.289Z,4.30
2019-05-13T12:16:07.319Z,5.05
2019-05-13T12:18:43.217Z,2.37
2019-05-13T12:21:06.345Z,2.80
2019-05-13T12:23:42.833Z,2.30
2019-05-13T12:26:12.904Z,3.77
2019-05-13T12:28:42.111Z,2.57
2019-05-13T12:31:13.844Z,4.67
2019-05-13T12:33:44.561Z,3.40
2019-05-13T12:36:18.158Z,3.80
2019-05-13T12:38:44.901Z,2.60
2019-05-13T12:41:13.480Z,1.97
2019-05-13T12:43:42.705Z,3.37
2019-05-13T12:46:12.523Z,4.73
2019-05-13T12:48:41.386Z,3.75
2019-05-13T12:51:13.189Z,5.70
2019-05-13T12:53:43.437Z,2.43
2019-05-13T12:56:12.576Z,2.87
2019-05-13T12:58:41.244Z,3.07
2019-05-13T13:01:12.535Z,5.17
2019-05-13T13:03:40.431Z,5.17
2019-05-13T13:06:29.991Z,4.20
2019-05-13T13:08:47.509Z,4.90
2019-05-13T13:11:09.848Z,4.13
2019-05-13T13:13:57.818Z,4.93
2019-05-13T13:16:12.450Z,3.60
2019-05-13T13:18:43.540Z,5.03
2019-05-13T13:21:14.372Z,3.87
2019-05-13T13:23:44.454Z,4.80
2019-05-13T13:26:15.797Z,6.03
2019-05-13T13:28:43.728Z,4.83
2019-05-13T13:31:13.099Z,4.10
2019-05-13T13:33:44.585Z,8.25
2019-05-13T13:36:15.651Z,4.30
2019-05-13T13:38:45.518Z,4.00
2019-05-13T13:41:22.374Z,6.47
2019-05-13T13:43:44.241Z,5.60
2019-05-13T13:46:32.341Z,4.03
2019-05-13T13:48:44.661Z,4.30
2019-05-13T13:51:14.421Z,3.47
2019-05-13T13:53:45.543Z,3.67
2019-05-13T13:56:14.999Z,4.10
2019-05-13T13:58:44.468Z,3.60
2019-05-13T14:01:19.928Z,3.93
2019-05-13T14:03:47.333Z,3.53
2019-05-13T14:07:13.511Z,2.27
2019-05-13T14:08:48.746Z,4.10
2019-05-13T14:11:22.778Z,3.30
2019-05-13T14:13:51.835Z,4.00
2019-05-13T14:16:28.037Z,5.27
2019-05-13T14:18:52.327Z,6.30
2019-05-13T14:21:21.620Z,5.03
2019-05-13T14:23:52.024Z,2.70
2019-05-13T14:26:22.689Z,4.30
2019-05-13T14:28:53.807Z,3.27
2019-05-13T14:31:22.511Z,5.80
2019-05-13T14:33:52.297Z,4.40
2019-05-13T14:36:23.057Z,3.73
2019-05-13T14:38:52.646Z,4.58
2019-05-13T14:41:24.421Z,3.23
2019-05-13T14:43:56.113Z,3.27
2019-05-13T14:46:43.159Z,4.80
2019-05-13T14:48:55.714Z,5.10
2019-05-13T14:51:24.311Z,4.47
2019-05-13T14:53:55.571Z,2.83
2019-05-13T14:56:26.204Z,5.60
2019-05-13T14:58:54.736Z,5.47
2019-05-13T15:01:23.253Z,4.60
2019-05-13T15:03:53.262Z,3.57
2019-05-13T15:06:22.350Z,3.83
2019-05-13T15:08:52.598Z,3.63
2019-05-13T15:11:22.050Z,3.57
2019-05-13T15:13:51.813Z,4.50
2019-05-13T15:16:24.289Z,4.05
2019-05-13T15:18:52.969Z,4.00
2019-05-13T15:21:23.027Z,6.43
2019-05-13T15:23:51.924Z,2.50
2019-05-13T15:26:22.241Z,4.33
2019-05-13T15:28:51.905Z,4.43
2019-05-13T15:31:22.635Z,3.87
2019-05-13T15:33:52.355Z,4.00
2019-05-13T15:36:22.519Z,6.37
2019-05-13T15:38:52.309Z,4.00
2019-05-13T15:41:20.918Z,9.83
2019-05-13T15:43:51.938Z,6.03
2019-05-13T15:46:23.527Z,16.85
2019-05-13T15:48:53.600Z,9.17
2019-05-13T15:51:24.928Z,14.63
2019-05-13T15:53:53.523Z,6.37
2019-05-13T15:56:31.753Z,4.90
2019-05-13T15:58:53.219Z,9.17
2019-05-13T16:01:22.947Z,3.27
2019-05-13T16:03:52.946Z,2.80
2019-05-13T16:06:24.634Z,2.83
2019-05-13T16:08:53.175Z,5.30
2019-05-13T16:11:22.243Z,3.33
2019-05-13T16:13:51.829Z,5.43
2019-05-13T16:16:22.008Z,5.03
2019-05-13T16:18:51.880Z,4.53
2019-05-13T16:21:23.435Z,3.92
2019-05-13T16:23:52.105Z,4.83
2019-05-13T16:26:31.858Z,3.03
2019-05-13T16:29:05.010Z,3.20
2019-05-13T16:31:34.932Z,4.73
2019-05-13T16:34:04.636Z,4.27
2019-05-13T16:36:34.578Z,3.03
2019-05-13T16:39:09.174Z,3.37
2019-05-13T16:41:42.621Z,3.67
2019-05-13T16:44:11.857Z,3.77
2019-05-13T16:46:43.709Z,6.67
2019-05-13T16:49:16.634Z,3.80
2019-05-13T16:51:45.136Z,3.50
2019-05-13T16:54:34.496Z,4.90
2019-05-13T16:57:03.577Z,3.57
2019-05-13T16:59:32.095Z,9.10
2019-05-13T17:02:03.456Z,6.67
2019-05-13T17:04:32.301Z,10.30
2019-05-13T17:07:01.646Z,16.52
2019-05-13T17:09:32.386Z,3.23
2019-05-13T17:12:01.755Z,4.23
2019-05-13T17:14:32.236Z,3.37
2019-05-13T17:17:01.426Z,3.52
2019-05-13T17:19:31.788Z,3.57
2019-05-13T17:22:02.332Z,4.35
2019-05-13T17:24:35.923Z,4.20
2019-05-13T17:27:04.432Z,3.72
2019-05-13T17:29:34.186Z,4.33
2019-05-13T17:32:03.154Z,4.33
2019-05-13T17:34:32.123Z,4.73
2019-05-13T17:37:02.767Z,5.30
2019-05-13T17:39:33.753Z,4.85
2019-05-13T17:42:06.708Z,5.10
2019-05-13T17:44:36.389Z,6.20
2019-05-13T17:47:05.091Z,5.43
2019-05-13T17:49:35.490Z,5.40
2019-05-13T17:52:03.959Z,4.73
2019-05-13T17:54:37.027Z,6.40
2019-05-13T17:57:07.884Z,7.30
2019-05-13T17:59:37.715Z,4.60
2019-05-13T18:02:06.351Z,4.08
2019-05-13T18:04:36.900Z,6.93
2019-05-13T18:07:06.446Z,6.40
2019-05-13T18:09:36.583Z,6.17
2019-05-13T18:12:05.340Z,4.43
2019-05-13T18:14:35.376Z,4.47
2019-05-13T18:17:03.918Z,4.80
2019-05-13T18:19:35.269Z,4.72
2019-05-13T18:22:05.863Z,7.97
2019-05-13T18:24:36.109Z,5.03
2019-05-13T18:27:08.834Z,5.43
2019-05-13T18:29:37.300Z,6.72
2019-05-13T18:32:08.606Z,5.43
2019-05-13T18:34:37.221Z,4.93
2019-05-13T18:37:08.357Z,7.83
2019-05-13T18:39:36.851Z,9.00
2019-05-13T18:42:06.404Z,6.10
2019-05-13T18:44:35.239Z,3.43
2019-05-13T18:47:03.773Z,6.92
2019-05-13T18:49:39.549Z,4.10
2019-05-13T18:52:05.425Z,7.43
2019-05-13T18:54:33.959Z,5.47
2019-05-13T18:57:04.293Z,4.37
2019-05-13T18:59:32.743Z,4.12
2019-05-13T19:02:01.676Z,4.40
2019-05-13T19:04:31.337Z,7.50
2019-05-13T19:07:02.349Z,5.07
2019-05-13T19:09:31.215Z,4.67
2019-05-13T19:12:01.373Z,6.63
2019-05-13T19:14:33.000Z,7.27
2019-05-13T19:17:01.475Z,7.50
2019-05-13T19:19:31.810Z,9.90
2019-05-13T19:22:02.153Z,5.30
2019-05-13T19:24:31.657Z,5.60
2019-05-13T19:27:01.681Z,6.93
2019-05-13T19:29:31.785Z,7.87
2019-05-13T19:32:01.767Z,9.35
2019-05-13T19:34:32.605Z,9.20
2019-05-13T19:37:02.435Z,9.37
2019-05-13T19:39:34.180Z,5.33
2019-05-13T19:42:04.198Z,5.93
2019-05-13T19:44:32.802Z,6.50
2019-05-13T19:47:06.744Z,4.97
2019-05-13T19:49:37.493Z,6.63
2019-05-13T19:52:06.220Z,7.80
2019-05-13T19:54:36.353Z,2.63
2019-05-13T19:57:05.367Z,3.00
2019-05-13T19:59:33.841Z,6.63
2019-05-13T20:02:02.391Z,4.43
2019-05-13T20:04:36.502Z,5.30
2019-05-13T20:07:06.232Z,2.83
2019-05-13T20:09:34.729Z,4.10
2019-05-13T20:12:07.742Z,2.83
2019-05-13T20:14:39.386Z,3.03
2019-05-13T20:17:09.542Z,6.93
2019-05-13T20:19:47.806Z,4.07
2019-05-13T20:22:08.214Z,3.62
2019-05-13T20:24:42.002Z,4.07
2019-05-13T20:27:11.983Z,5.97
2019-05-13T20:29:41.714Z,3.58
2019-05-13T20:32:14.168Z,7.05
2019-05-13T20:34:42.701Z,4.27
2019-05-13T20:37:12.401Z,4.50
2019-05-13T20:39:42.417Z,3.70
2019-05-13T20:42:12.534Z,9.30
2019-05-13T20:44:41.930Z,3.85
2019-05-13T20:47:11.272Z,2.57
2019-05-13T20:49:41.656Z,4.80
2019-05-13T20:52:13.772Z,4.63
2019-05-13T20:54:41.701Z,3.13
2019-05-13T20:57:10.362Z,3.83
2019-05-13T20:59:41.195Z,5.87
2019-05-13T21:02:09.260Z,2.93
2019-05-13T21:04:38.598Z,2.90
2019-05-13T21:07:08.666Z,2.60
2019-05-13T21:09:37.180Z,4.27
2019-05-13T21:12:05.659Z,4.10
2019-05-13T21:14:34.190Z,4.67
2019-05-13T21:17:02.721Z,3.20
2019-05-13T21:19:39.369Z,3.05
2019-05-13T21:22:02.627Z,6.27
2019-05-13T21:24:31.917Z,6.85
2019-05-13T21:27:03.497Z,4.10
2019-05-13T21:29:32.434Z,2.53
2019-05-13T21:32:02.541Z,6.90
2019-05-13T21:34:32.305Z,4.83
2019-05-13T21:37:02.331Z,2.07
2019-05-13T21:39:32.019Z,3.77
2019-05-13T21:42:02.408Z,4.37
2019-05-13T21:44:32.687Z,7.70
2019-05-13T21:47:02.192Z,5.37
2019-05-13T21:49:33.509Z,4.57
2019-05-13T21:52:09.201Z,4.13
2019-05-13T21:54:37.890Z,4.97
2019-05-13T21:57:11.344Z,2.87
2019-05-13T21:59:45.187Z,4.33
2019-05-13T22:02:15.249Z,3.62
2019-05-13T22:04:45.099Z,2.37
2019-05-13T22:07:15.267Z,3.00
2019-05-13T22:09:43.903Z,3.60
2019-05-13T22:12:18.213Z,3.20
2019-05-13T22:14:48.353Z,3.60
2019-05-13T22:17:16.901Z,4.13
2019-05-13T22:19:47.015Z,4.67
2019-05-13T22:22:15.481Z,3.27
2019-05-13T22:24:48.616Z,2.30
2019-05-13T22:27:21.859Z,7.03
2019-05-13T22:29:51.675Z,5.13
2019-05-13T22:32:30.590Z,4.23
2019-05-13T22:35:01.957Z,5.90
2019-05-13T22:37:31.331Z,5.83
2019-05-13T22:40:01.550Z,4.03
2019-05-13T22:42:34.098Z,3.60
2019-05-13T22:45:02.958Z,3.70
2019-05-13T22:47:35.474Z,2.50
2019-05-13T22:50:11.484Z,5.53
2019-05-13T22:52:44.122Z,2.30
2019-05-13T22:55:15.902Z,4.67
2019-05-13T22:57:47.312Z,7.10
2019-05-13T23:00:16.334Z,4.00
2019-05-13T23:02:47.407Z,4.30
2019-05-13T23:05:18.732Z,5.00
2019-05-13T23:07:47.306Z,2.50
2019-05-13T23:10:18.384Z,4.20
2019-05-13T23:12:48.207Z,2.97
2019-05-13T23:15:21.144Z,4.60
2019-05-13T23:17:52.098Z,3.63
2019-05-13T23:20:21.840Z,2.87
2019-05-13T23:22:52.064Z,3.40
2019-05-13T23:25:22.061Z,4.90
2019-05-13T23:27:59.513Z,4.93
2019-05-13T23:30:28.026Z,4.03
2019-05-13T23:32:56.753Z,3.60
2019-05-13T23:35:26.853Z,4.27
2019-05-13T23:38:01.482Z,4.03
2019-05-13T23:40:35.158Z,4.50
2019-05-13T23:43:03.852Z,4.05
2019-05-13T23:45:32.502Z,3.98
2019-05-13T23:48:03.881Z,6.13
2019-05-13T23:50:34.010Z,3.73
2019-05-13T23:53:02.548Z,6.77
2019-05-13T23:55:32.120Z,6.83
2019-05-13T23:58:03.474Z,4.85
